sensor_id;sensor_type;location;lat;lon;timestamp;pressure;altitude;pressure_sealevel;temperature;humidity
11077;BME280;5591;42.626;23.380;2023-05-01T00:06:58;94165.00;;;13.13;100.00
11077;BME280;5591;42.626;23.380;2023-05-01T00:09:26;94183.81;;;13.04;100.00
11077;BME280;5591;42.626;23.380;2023-05-01T00:11:53;94162.75;;;12.97;100.00
11077;BME280;5591;42.626;23.380;2023-05-01T00:14:19;94164.38;;;12.79;100.00
11077;BME280;5591;42.626;23.380;2023-05-01T00:16:46;94166.41;;;12.83;100.00
11077;BME280;5591;42.626;23.380;2023-05-01T00:19:13;94184.41;;;12.73;100.00
11077;BME280;5591;42.626;23.380;2023-05-01T00:21:43;94167.00;;;12.72;100.00
11077;BME280;5591;42.626;23.380;2023-05-01T00:24:12;94143.31;;;12.46;100.00
11077;BME280;5591;42.626;23.380;2023-05-01T00:26:39;94169.81;;;12.51;100.00
11077;BME280;5591;42.626;23.380;2023-05-01T00:29:06;94170.44;;;12.53;100.00
11077;BME280;5591;42.626;23.380;2023-05-01T00:31:33;94174.25;;;12.38;100.00
11077;BME280;5591;42.626;23.380;2023-05-01T00:33:59;94173.66;;;12.42;100.00
11077;BME280;5591;42.626;23.380;2023-05-01T00:36:26;94166.19;;;12.46;100.00
11077;BME280;5591;42.626;23.380;2023-05-01T00:38:53;94172.88;;;12.48;100.00
11077;BME280;5591;42.626;23.380;2023-05-01T00:41:21;94173.47;;;12.50;100.00
11077;BME280;5591;42.626;23.380;2023-05-01T00:43:48;94177.13;;;12.43;100.00
11077;BME280;5591;42.626;23.380;2023-05-01T00:46:15;94172.22;;;12.33;100.00
11077;BME280;5591;42.626;23.380;2023-05-01T00:48:42;94177.47;;;12.27;100.00
11077;BME280;5591;42.626;23.380;2023-05-01T00:51:09;94090.66;;;11.54;100.00
11077;BME280;5591;42.626;23.380;2023-05-01T00:53:39;94209.00;;;12.08;100.00
11077;BME280;5591;42.626;23.380;2023-05-01T00:56:06;94079.69;;;11.38;100.00
11077;BME280;5591;42.626;23.380;2023-05-01T00:58:34;94188.56;;;12.10;100.00
11077;BME280;5591;42.626;23.380;2023-05-01T01:01:02;94182.94;;;12.19;100.00
11077;BME280;5591;42.626;23.380;2023-05-01T01:03:29;94180.75;;;12.36;100.00
11077;BME280;5591;42.626;23.380;2023-05-01T01:06:00;94189.84;;;12.39;100.00
11077;BME280;5591;42.626;23.380;2023-05-01T01:08:34;94194.09;;;12.28;100.00
11077;BME280;5591;42.626;23.380;2023-05-01T01:11:13;94086.47;;;11.60;100.00
11077;BME280;5591;42.626;23.380;2023-05-01T01:14:02;94200.09;;;12.09;100.00
11077;BME280;5591;42.626;23.380;2023-05-01T01:16:40;94199.22;;;11.89;100.00
11077;BME280;5591;42.626;23.380;2023-05-01T01:19:29;94200.56;;;11.72;100.00
11077;BME280;5591;42.626;23.380;2023-05-01T01:22:07;94183.88;;;11.52;100.00
11077;BME280;5591;42.626;23.380;2023-05-01T01:24:55;94197.78;;;11.46;100.00
11077;BME280;5591;42.626;23.380;2023-05-01T01:27:53;94199.97;;;11.42;100.00
11077;BME280;5591;42.626;23.380;2023-05-01T01:31:04;94206.09;;;11.49;100.00
11077;BME280;5591;42.626;23.380;2023-05-01T01:34:00;94212.50;;;11.40;100.00
11077;BME280;5591;42.626;23.380;2023-05-01T01:36:38;94209.84;;;11.34;100.00
11077;BME280;5591;42.626;23.380;2023-05-01T01:39:12;94211.56;;;11.20;100.00
11077;BME280;5591;42.626;23.380;2023-05-01T01:41:42;94151.53;;;10.83;100.00
11077;BME280;5591;42.626;23.380;2023-05-01T01:44:15;94190.13;;;11.17;100.00
11077;BME280;5591;42.626;23.380;2023-05-01T01:46:47;94206.75;;;11.24;100.00
11077;BME280;5591;42.626;23.380;2023-05-01T01:49:18;94204.72;;;11.26;100.00
11077;BME280;5591;42.626;23.380;2023-05-01T01:51:49;94207.28;;;11.13;100.00
11077;BME280;5591;42.626;23.380;2023-05-01T01:54:19;94204.44;;;11.08;100.00
11077;BME280;5591;42.626;23.380;2023-05-01T01:56:48;94194.22;;;10.98;100.00
11077;BME280;5591;42.626;23.380;2023-05-01T01:59:17;94193.28;;;10.78;100.00
11077;BME280;5591;42.626;23.380;2023-05-01T02:01:47;94196.59;;;10.87;100.00
11077;BME280;5591;42.626;23.380;2023-05-01T02:04:17;94190.00;;;10.97;100.00
11077;BME280;5591;42.626;23.380;2023-05-01T02:06:46;94190.84;;;11.04;100.00
11077;BME280;5591;42.626;23.380;2023-05-01T02:09:15;94200.22;;;10.86;100.00
11077;BME280;5591;42.626;23.380;2023-05-01T02:11:42;94193.44;;;10.98;100.00
11077;BME280;5591;42.626;23.380;2023-05-01T02:14:10;94191.56;;;10.92;100.00
11077;BME280;5591;42.626;23.380;2023-05-01T02:16:40;94183.25;;;10.88;100.00
11077;BME280;5591;42.626;23.380;2023-05-01T02:19:08;94084.19;;;10.14;100.00
11077;BME280;5591;42.626;23.380;2023-05-01T02:21:38;94189.47;;;10.81;100.00
11077;BME280;5591;42.626;23.380;2023-05-01T02:24:06;94179.94;;;10.52;100.00
11077;BME280;5591;42.626;23.380;2023-05-01T02:26:38;94182.41;;;10.54;100.00
11077;BME280;5591;42.626;23.380;2023-05-01T02:29:07;94183.94;;;10.48;100.00
11077;BME280;5591;42.626;23.380;2023-05-01T02:31:33;94190.44;;;10.52;100.00
11077;BME280;5591;42.626;23.380;2023-05-01T02:34:00;94179.78;;;10.54;100.00
11077;BME280;5591;42.626;23.380;2023-05-01T02:36:27;94192.50;;;10.57;100.00
11077;BME280;5591;42.626;23.380;2023-05-01T02:38:55;94185.59;;;10.49;100.00
11077;BME280;5591;42.626;23.380;2023-05-01T02:41:23;94188.88;;;10.37;100.00
11077;BME280;5591;42.626;23.380;2023-05-01T02:43:55;94180.75;;;10.32;100.00
11077;BME280;5591;42.626;23.380;2023-05-01T02:46:24;94182.81;;;10.36;100.00
11077;BME280;5591;42.626;23.380;2023-05-01T02:48:52;94186.25;;;10.37;100.00
11077;BME280;5591;42.626;23.380;2023-05-01T02:51:22;94182.81;;;10.36;100.00
11077;BME280;5591;42.626;23.380;2023-05-01T02:53:49;94189.56;;;10.24;100.00
11077;BME280;5591;42.626;23.380;2023-05-01T02:56:18;94190.06;;;10.34;100.00
11077;BME280;5591;42.626;23.380;2023-05-01T02:58:44;94195.94;;;10.36;100.00
11077;BME280;5591;42.626;23.380;2023-05-01T03:01:11;94192.41;;;10.44;100.00
11077;BME280;5591;42.626;23.380;2023-05-01T03:03:38;94195.88;;;10.51;100.00
11077;BME280;5591;42.626;23.380;2023-05-01T03:06:05;94192.69;;;10.55;100.00
11077;BME280;5591;42.626;23.380;2023-05-01T03:08:31;94188.25;;;10.56;100.00
11077;BME280;5591;42.626;23.380;2023-05-01T03:10:58;94190.50;;;10.59;100.00
11077;BME280;5591;42.626;23.380;2023-05-01T03:13:27;94192.00;;;10.68;100.00
11077;BME280;5591;42.626;23.380;2023-05-01T03:15:53;94196.38;;;10.61;100.00
11077;BME280;5591;42.626;23.380;2023-05-01T03:18:20;94197.88;;;10.49;100.00
11077;BME280;5591;42.626;23.380;2023-05-01T03:20:50;94210.31;;;10.40;100.00
11077;BME280;5591;42.626;23.380;2023-05-01T03:23:18;94204.84;;;10.21;100.00
11077;BME280;5591;42.626;23.380;2023-05-01T03:25:44;94206.72;;;9.91;100.00
11077;BME280;5591;42.626;23.380;2023-05-01T03:28:11;94209.53;;;9.55;100.00
11077;BME280;5591;42.626;23.380;2023-05-01T03:30:39;94220.25;;;9.74;100.00
11077;BME280;5591;42.626;23.380;2023-05-01T03:33:07;94215.06;;;9.80;100.00
11077;BME280;5591;42.626;23.380;2023-05-01T03:35:33;94215.28;;;9.65;100.00
11077;BME280;5591;42.626;23.380;2023-05-01T03:38:00;94214.16;;;9.73;100.00
11077;BME280;5591;42.626;23.380;2023-05-01T03:40:27;94216.38;;;9.70;100.00
11077;BME280;5591;42.626;23.380;2023-05-01T03:42:54;94225.84;;;9.71;100.00
11077;BME280;5591;42.626;23.380;2023-05-01T03:45:21;94222.47;;;9.77;100.00
11077;BME280;5591;42.626;23.380;2023-05-01T03:47:49;94225.28;;;9.90;100.00
11077;BME280;5591;42.626;23.380;2023-05-01T03:50:16;94244.88;;;9.94;100.00
11077;BME280;5591;42.626;23.380;2023-05-01T03:52:43;94231.59;;;9.95;100.00
11077;BME280;5591;42.626;23.380;2023-05-01T03:55:10;94241.09;;;9.96;100.00
11077;BME280;5591;42.626;23.380;2023-05-01T03:57:37;94239.97;;;10.05;100.00
11077;BME280;5591;42.626;23.380;2023-05-01T04:00:04;94236.38;;;10.06;100.00
11077;BME280;5591;42.626;23.380;2023-05-01T04:02:31;94247.47;;;10.23;100.00
11077;BME280;5591;42.626;23.380;2023-05-01T04:04:59;94243.84;;;10.24;100.00
11077;BME280;5591;42.626;23.380;2023-05-01T04:07:26;94245.41;;;10.18;100.00
11077;BME280;5591;42.626;23.380;2023-05-01T04:09:53;94241.91;;;10.32;100.00
11077;BME280;5591;42.626;23.380;2023-05-01T04:12:20;94241.97;;;10.39;100.00
11077;BME280;5591;42.626;23.380;2023-05-01T04:14:46;94252.34;;;10.47;100.00
11077;BME280;5591;42.626;23.380;2023-05-01T04:17:13;94246.03;;;10.62;100.00
11077;BME280;5591;42.626;23.380;2023-05-01T04:19:40;94242.25;;;10.65;100.00
11077;BME280;5591;42.626;23.380;2023-05-01T04:22:08;94243.59;;;10.82;100.00
11077;BME280;5591;42.626;23.380;2023-05-01T04:24:35;94247.13;;;10.95;100.00
11077;BME280;5591;42.626;23.380;2023-05-01T04:27:02;94237.63;;;10.94;100.00
11077;BME280;5591;42.626;23.380;2023-05-01T04:29:29;94247.72;;;11.18;100.00
11077;BME280;5591;42.626;23.380;2023-05-01T04:31:55;94246.47;;;11.42;100.00
11077;BME280;5591;42.626;23.380;2023-05-01T04:34:22;94250.97;;;11.54;100.00
11077;BME280;5591;42.626;23.380;2023-05-01T04:36:53;94251.56;;;11.77;100.00
11077;BME280;5591;42.626;23.380;2023-05-01T04:39:22;94252.25;;;11.92;100.00
11077;BME280;5591;42.626;23.380;2023-05-01T04:41:49;94285.03;;;12.03;100.00
11077;BME280;5591;42.626;23.380;2023-05-01T04:44:16;94123.13;;;11.34;100.00
11077;BME280;5591;42.626;23.380;2023-05-01T04:46:43;94257.84;;;12.30;100.00
11077;BME280;5591;42.626;23.380;2023-05-01T04:49:10;94251.16;;;12.33;100.00
11077;BME280;5591;42.626;23.380;2023-05-01T04:51:37;94260.59;;;12.09;100.00
11077;BME280;5591;42.626;23.380;2023-05-01T04:54:04;94253.63;;;12.48;100.00
11077;BME280;5591;42.626;23.380;2023-05-01T04:56:32;94262.97;;;12.44;100.00
11077;BME280;5591;42.626;23.380;2023-05-01T04:58:59;94265.22;;;12.60;100.00
11077;BME280;5591;42.626;23.380;2023-05-01T05:01:25;94268.50;;;12.81;100.00
11077;BME280;5591;42.626;23.380;2023-05-01T05:03:52;94265.91;;;13.01;100.00
11077;BME280;5591;42.626;23.380;2023-05-01T05:06:19;94272.59;;;13.03;100.00
11077;BME280;5591;42.626;23.380;2023-05-01T05:08:46;94276.06;;;13.10;100.00
11077;BME280;5591;42.626;23.380;2023-05-01T05:11:16;94279.31;;;13.25;100.00
11077;BME280;5591;42.626;23.380;2023-05-01T05:13:44;94277.06;;;13.03;100.00
11077;BME280;5591;42.626;23.380;2023-05-01T05:16:12;94276.06;;;13.10;100.00
11077;BME280;5591;42.626;23.380;2023-05-01T05:18:39;94287.56;;;12.90;100.00
11077;BME280;5591;42.626;23.380;2023-05-01T05:21:06;94282.88;;;12.85;100.00
11077;BME280;5591;42.626;23.380;2023-05-01T05:23:34;94240.31;;;12.75;100.00
11077;BME280;5591;42.626;23.380;2023-05-01T05:26:02;94298.69;;;12.92;100.00
11077;BME280;5591;42.626;23.380;2023-05-01T05:28:30;94300.56;;;13.24;100.00
11077;BME280;5591;42.626;23.380;2023-05-01T05:30:58;94292.84;;;13.68;100.00
11077;BME280;5591;42.626;23.380;2023-05-01T05:33:25;94303.41;;;13.68;100.00
11077;BME280;5591;42.626;23.380;2023-05-01T05:35:53;94305.34;;;14.24;100.00
11077;BME280;5591;42.626;23.380;2023-05-01T05:38:20;94293.09;;;14.43;100.00
11077;BME280;5591;42.626;23.380;2023-05-01T05:40:47;94301.81;;;14.43;100.00
11077;BME280;5591;42.626;23.380;2023-05-01T05:43:13;94303.25;;;14.39;100.00
11077;BME280;5591;42.626;23.380;2023-05-01T05:45:40;94301.34;;;14.53;100.00
11077;BME280;5591;42.626;23.380;2023-05-01T05:48:08;94303.38;;;13.94;100.00
11077;BME280;5591;42.626;23.380;2023-05-01T05:50:35;94302.44;;;14.39;100.00
11077;BME280;5591;42.626;23.380;2023-05-01T05:53:02;94305.75;;;14.72;100.00
11077;BME280;5591;42.626;23.380;2023-05-01T05:55:29;94302.75;;;14.99;100.00
11077;BME280;5591;42.626;23.380;2023-05-01T05:57:56;94302.28;;;15.08;100.00
11077;BME280;5591;42.626;23.380;2023-05-01T06:00:23;94311.66;;;15.35;100.00
11077;BME280;5591;42.626;23.380;2023-05-01T06:02:49;94304.97;;;15.57;100.00
11077;BME280;5591;42.626;23.380;2023-05-01T06:05:17;94309.03;;;15.84;100.00
11077;BME280;5591;42.626;23.380;2023-05-01T06:07:44;94307.78;;;16.05;100.00
11077;BME280;5591;42.626;23.380;2023-05-01T06:10:11;94312.56;;;15.96;100.00
11077;BME280;5591;42.626;23.380;2023-05-01T06:12:38;94320.06;;;14.95;100.00
11077;BME280;5591;42.626;23.380;2023-05-01T06:15:06;94311.66;;;15.35;100.00
11077;BME280;5591;42.626;23.380;2023-05-01T06:17:33;94311.25;;;15.63;100.00
11077;BME280;5591;42.626;23.380;2023-05-01T06:20:02;94319.28;;;15.50;100.00
11077;BME280;5591;42.626;23.380;2023-05-01T06:22:31;94317.34;;;15.63;100.00
11077;BME280;5591;42.626;23.380;2023-05-01T06:24:58;94322.59;;;15.70;100.00
11077;BME280;5591;42.626;23.380;2023-05-01T06:27:25;94316.59;;;15.81;100.00
11077;BME280;5591;42.626;23.380;2023-05-01T06:29:52;94314.34;;;15.60;100.00
11077;BME280;5591;42.626;23.380;2023-05-01T06:32:19;94326.97;;;15.58;100.00
11077;BME280;5591;42.626;23.380;2023-05-01T06:34:45;94323.53;;;14.89;100.00
11077;BME280;5591;42.626;23.380;2023-05-01T06:37:12;94325.16;;;14.90;100.00
11077;BME280;5591;42.626;23.380;2023-05-01T06:39:40;94320.69;;;14.91;100.00
11077;BME280;5591;42.626;23.380;2023-05-01T06:42:07;94313.72;;;15.33;100.00
11077;BME280;5591;42.626;23.380;2023-05-01T06:44:36;94314.28;;;15.66;100.00
11077;BME280;5591;42.626;23.380;2023-05-01T06:47:03;94325.81;;;15.47;100.00
11077;BME280;5591;42.626;23.380;2023-05-01T06:49:29;94321.34;;;15.48;100.00
11077;BME280;5591;42.626;23.380;2023-05-01T06:51:56;94314.00;;;15.99;100.00
11077;BME280;5591;42.626;23.380;2023-05-01T06:54:23;94311.22;;;16.30;100.00
11077;BME280;5591;42.626;23.380;2023-05-01T06:56:52;94329.81;;;16.23;100.00
11077;BME280;5591;42.626;23.380;2023-05-01T06:59:19;94321.34;;;16.87;100.00
11077;BME280;5591;42.626;23.380;2023-05-01T07:01:46;94313.28;;;17.11;100.00
11077;BME280;5591;42.626;23.380;2023-05-01T07:04:12;94309.47;;;17.19;100.00
11077;BME280;5591;42.626;23.380;2023-05-01T07:06:39;94317.22;;;16.91;100.00
11077;BME280;5591;42.626;23.380;2023-05-01T07:09:06;94316.44;;;16.72;100.00
11077;BME280;5591;42.626;23.380;2023-05-01T07:11:33;94317.84;;;16.75;100.00
11077;BME280;5591;42.626;23.380;2023-05-01T07:14:01;94310.09;;;17.32;100.00
11077;BME280;5591;42.626;23.380;2023-05-01T07:16:28;94321.31;;;17.98;100.00
11077;BME280;5591;42.626;23.380;2023-05-01T07:18:54;94317.97;;;18.37;97.66
11077;BME280;5591;42.626;23.380;2023-05-01T07:21:21;94321.34;;;18.32;94.73
11077;BME280;5591;42.626;23.380;2023-05-01T07:23:48;94325.13;;;18.48;94.05
11077;BME280;5591;42.626;23.380;2023-05-01T07:26:15;94326.00;;;18.76;93.10
11077;BME280;5591;42.626;23.380;2023-05-01T07:28:42;94330.09;;;18.44;92.47
11077;BME280;5591;42.626;23.380;2023-05-01T07:31:10;94326.50;;;18.62;90.47
11077;BME280;5591;42.626;23.380;2023-05-01T07:33:37;94330.69;;;18.97;86.93
11077;BME280;5591;42.626;23.380;2023-05-01T07:36:04;94298.88;;;18.51;89.79
11077;BME280;5591;42.626;23.380;2023-05-01T07:38:30;94218.34;;;17.88;89.50
11077;BME280;5591;42.626;23.380;2023-05-01T07:40:57;94328.25;;;18.96;86.75
11077;BME280;5591;42.626;23.380;2023-05-01T07:43:24;94317.75;;;19.17;84.67
11077;BME280;5591;42.626;23.380;2023-05-01T07:45:55;94327.09;;;19.31;82.82
11077;BME280;5591;42.626;23.380;2023-05-01T07:48:25;94330.94;;;19.24;81.58
11077;BME280;5591;42.626;23.380;2023-05-01T07:50:52;94328.09;;;18.74;81.15
11077;BME280;5591;42.626;23.380;2023-05-01T07:53:19;94330.69;;;18.97;83.83
11077;BME280;5591;42.626;23.380;2023-05-01T07:55:47;94328.63;;;19.16;87.21
11077;BME280;5591;42.626;23.380;2023-05-01T07:58:14;94326.47;;;19.41;83.28
11077;BME280;5591;42.626;23.380;2023-05-01T08:00:42;94321.81;;;19.64;79.29
11077;BME280;5591;42.626;23.380;2023-05-01T08:03:10;94330.84;;;20.08;77.06
11077;BME280;5591;42.626;23.380;2023-05-01T08:05:40;94325.41;;;20.19;77.93
11077;BME280;5591;42.626;23.380;2023-05-01T08:08:07;94330.38;;;19.99;73.65
11077;BME280;5591;42.626;23.380;2023-05-01T08:10:34;94261.94;;;19.50;72.25
11077;BME280;5591;42.626;23.380;2023-05-01T08:13:00;94332.63;;;20.40;70.42
11077;BME280;5591;42.626;23.380;2023-05-01T08:15:28;94325.44;;;19.58;73.71
11077;BME280;5591;42.626;23.380;2023-05-01T08:17:54;94325.88;;;19.39;77.38
11077;BME280;5591;42.626;23.380;2023-05-01T08:20:21;94320.31;;;19.24;78.48
11077;BME280;5591;42.626;23.380;2023-05-01T08:22:49;94326.94;;;19.82;75.46
11077;BME280;5591;42.626;23.380;2023-05-01T08:25:16;94328.06;;;20.19;71.08
11077;BME280;5591;42.626;23.380;2023-05-01T08:27:43;94346.19;;;20.55;66.89
11077;BME280;5591;42.626;23.380;2023-05-01T08:30:10;94333.41;;;20.95;65.13
11077;BME280;5591;42.626;23.380;2023-05-01T08:32:37;94326.25;;;21.00;60.21
11077;BME280;5591;42.626;23.380;2023-05-01T08:35:05;94336.59;;;20.75;63.77
11077;BME280;5591;42.626;23.380;2023-05-01T08:37:31;94330.53;;;20.80;63.31
11077;BME280;5591;42.626;23.380;2023-05-01T08:40:00;94364.53;;;20.89;62.36
11077;BME280;5591;42.626;23.380;2023-05-01T08:42:33;94324.28;;;20.91;60.85
11077;BME280;5591;42.626;23.380;2023-05-01T08:45:00;94324.09;;;20.97;59.10
11077;BME280;5591;42.626;23.380;2023-05-01T08:47:29;94347.78;;;21.37;58.38
11077;BME280;5591;42.626;23.380;2023-05-01T08:49:56;94325.91;;;21.13;57.54
11077;BME280;5591;42.626;23.380;2023-05-01T08:52:26;94233.09;;;20.77;56.19
11077;BME280;5591;42.626;23.380;2023-05-01T08:54:55;94321.81;;;21.59;53.96
11077;BME280;5591;42.626;23.380;2023-05-01T08:57:25;94314.28;;;21.77;53.42
11077;BME280;5591;42.626;23.380;2023-05-01T08:59:53;94318.19;;;21.65;54.01
11077;BME280;5591;42.626;23.380;2023-05-01T09:02:22;94355.47;;;21.60;54.19
11077;BME280;5591;42.626;23.380;2023-05-01T09:04:50;94326.31;;;22.11;52.07
11077;BME280;5591;42.626;23.380;2023-05-01T09:07:17;94315.41;;;21.86;51.92
11077;BME280;5591;42.626;23.380;2023-05-01T09:09:43;94315.81;;;22.00;52.60
11077;BME280;5591;42.626;23.380;2023-05-01T09:12:22;94316.56;;;21.95;51.27
11077;BME280;5591;42.626;23.380;2023-05-01T09:14:52;94317.56;;;22.21;50.60
11077;BME280;5591;42.626;23.380;2023-05-01T09:17:19;94309.13;;;22.39;49.93
11077;BME280;5591;42.626;23.380;2023-05-01T09:19:47;94310.06;;;22.59;48.73
11077;BME280;5591;42.626;23.380;2023-05-01T09:22:14;94313.22;;;22.46;49.44
11077;BME280;5591;42.626;23.380;2023-05-01T09:24:41;94316.63;;;22.78;49.98
11077;BME280;5591;42.626;23.380;2023-05-01T09:27:08;94312.19;;;22.52;51.59
11077;BME280;5591;42.626;23.380;2023-05-01T09:29:39;94319.84;;;22.39;51.15
11077;BME280;5591;42.626;23.380;2023-05-01T09:34:42;94288.00;;;22.84;48.99
11077;BME280;5591;42.626;23.380;2023-05-01T09:37:11;94306.56;;;23.10;49.58
11077;BME280;5591;42.626;23.380;2023-05-01T09:39:39;94299.97;;;22.71;50.94
11077;BME280;5591;42.626;23.380;2023-05-01T09:42:06;94308.19;;;23.11;50.03
11077;BME280;5591;42.626;23.380;2023-05-01T09:44:40;94305.06;;;23.29;47.91
11077;BME280;5591;42.626;23.380;2023-05-01T09:47:09;94310.00;;;22.96;49.70
11077;BME280;5591;42.626;23.380;2023-05-01T09:49:45;94316.03;;;22.71;50.95
11077;BME280;5591;42.626;23.380;2023-05-01T09:52:13;94312.88;;;22.79;51.43
11077;BME280;5591;42.626;23.380;2023-05-01T09:54:41;94307.47;;;23.25;50.39
11077;BME280;5591;42.626;23.380;2023-05-01T09:57:08;94306.41;;;22.29;50.77
11077;BME280;5591;42.626;23.380;2023-05-01T09:59:35;94299.81;;;22.93;50.01
11077;BME280;5591;42.626;23.380;2023-05-01T10:02:02;94300.00;;;23.52;48.79
11077;BME280;5591;42.626;23.380;2023-05-01T10:04:30;94253.41;;;23.58;47.86
11077;BME280;5591;42.626;23.380;2023-05-01T10:07:00;94290.97;;;23.88;46.42
11077;BME280;5591;42.626;23.380;2023-05-01T10:09:36;94294.13;;;23.60;46.97
11077;BME280;5591;42.626;23.380;2023-05-01T10:12:03;94305.38;;;22.81;46.62
11077;BME280;5591;42.626;23.380;2023-05-01T10:14:30;94290.34;;;23.51;45.72
11077;BME280;5591;42.626;23.380;2023-05-01T10:17:16;94289.09;;;23.89;44.17
11077;BME280;5591;42.626;23.380;2023-05-01T10:19:44;94292.84;;;23.88;44.74
11077;BME280;5591;42.626;23.380;2023-05-01T10:22:12;94289.34;;;24.32;43.10
11077;BME280;5591;42.626;23.380;2023-05-01T10:24:41;94296.59;;;24.27;42.76
11077;BME280;5591;42.626;23.380;2023-05-01T10:27:11;94317.50;;;24.40;43.21
11077;BME280;5591;42.626;23.380;2023-05-01T10:29:39;94294.69;;;24.42;42.55
11077;BME280;5591;42.626;23.380;2023-05-01T10:32:07;94286.38;;;24.54;41.44
11077;BME280;5591;42.626;23.380;2023-05-01T10:34:37;94282.38;;;24.21;42.07
11077;BME280;5591;42.626;23.380;2023-05-01T10:37:12;94288.28;;;24.23;42.37
11077;BME280;5591;42.626;23.380;2023-05-01T10:39:44;94286.94;;;24.21;42.24
11077;BME280;5591;42.626;23.380;2023-05-01T10:42:10;94293.44;;;25.08;40.19
11077;BME280;5591;42.626;23.380;2023-05-01T10:44:39;94285.91;;;25.15;40.89
11077;BME280;5591;42.626;23.380;2023-05-01T10:47:43;94287.72;;;24.56;41.52
11077;BME280;5591;42.626;23.380;2023-05-01T10:50:11;94289.84;;;25.38;40.90
11077;BME280;5591;42.626;23.380;2023-05-01T10:53:15;94281.59;;;26.06;40.45
11077;BME280;5591;42.626;23.380;2023-05-01T10:55:44;94283.41;;;26.44;40.58
11077;BME280;5591;42.626;23.380;2023-05-01T10:58:12;94280.91;;;26.81;40.79
11077;BME280;5591;42.626;23.380;2023-05-01T11:00:39;94280.16;;;26.75;40.73
11077;BME280;5591;42.626;23.380;2023-05-01T11:03:34;94285.28;;;24.70;43.56
11077;BME280;5591;42.626;23.380;2023-05-01T11:06:05;94316.16;;;24.67;43.41
11077;BME280;5591;42.626;23.380;2023-05-01T11:08:34;94258.09;;;25.88;42.20
11077;BME280;5591;42.626;23.380;2023-05-01T11:14:07;94276.38;;;27.00;40.49
11077;BME280;5591;42.626;23.380;2023-05-01T11:16:43;94265.84;;;26.56;40.34
11077;BME280;5591;42.626;23.380;2023-05-01T11:19:42;94281.75;;;26.53;41.08
11077;BME280;5591;42.626;23.380;2023-05-01T11:22:00;94289.84;;;27.00;40.02
11077;BME280;5591;42.626;23.380;2023-05-01T11:24:30;94288.53;;;27.21;40.04
11077;BME280;5591;42.626;23.380;2023-05-01T11:26:57;94194.13;;;26.08;40.38
11077;BME280;5591;42.626;23.380;2023-05-01T11:29:30;94200.53;;;24.29;43.42
11077;BME280;5591;42.626;23.380;2023-05-01T11:31:57;94291.28;;;25.15;42.63
11077;BME280;5591;42.626;23.380;2023-05-01T11:34:25;94302.59;;;26.04;41.18
11077;BME280;5591;42.626;23.380;2023-05-01T11:36:52;94289.25;;;27.50;39.63
11077;BME280;5591;42.626;23.380;2023-05-01T11:39:20;94292.53;;;29.11;37.63
11077;BME280;5591;42.626;23.380;2023-05-01T11:41:47;94285.66;;;28.10;36.35
11077;BME280;5591;42.626;23.380;2023-05-01T11:44:15;94308.91;;;27.74;37.17
11077;BME280;5591;42.626;23.380;2023-05-01T11:46:42;94290.34;;;27.02;37.70
11077;BME280;5591;42.626;23.380;2023-05-01T11:49:10;94308.94;;;26.80;37.72
11077;BME280;5591;42.626;23.380;2023-05-01T11:51:37;94291.13;;;27.68;35.64
11077;BME280;5591;42.626;23.380;2023-05-01T11:54:04;94285.22;;;28.21;35.66
11077;BME280;5591;42.626;23.380;2023-05-01T11:56:34;94293.50;;;28.43;34.57
11077;BME280;5591;42.626;23.380;2023-05-01T11:59:09;94300.38;;;28.67;35.09
11077;BME280;5591;42.626;23.380;2023-05-01T12:01:37;94302.59;;;27.97;35.67
11077;BME280;5591;42.626;23.380;2023-05-01T12:04:04;94305.09;;;26.86;36.52
11077;BME280;5591;42.626;23.380;2023-05-01T12:06:35;94307.56;;;26.25;37.21
11077;BME280;5591;42.626;23.380;2023-05-01T12:09:06;94317.84;;;25.27;38.38
11077;BME280;5591;42.626;23.380;2023-05-01T12:11:35;94308.63;;;25.91;38.09
11077;BME280;5591;42.626;23.380;2023-05-01T12:14:02;94311.00;;;27.77;35.93
11077;BME280;5591;42.626;23.380;2023-05-01T12:16:30;94315.38;;;29.19;35.12
11077;BME280;5591;42.626;23.380;2023-05-01T12:18:57;94310.34;;;30.02;34.42
11077;BME280;5591;42.626;23.380;2023-05-01T12:21:23;94313.06;;;30.02;33.59
11077;BME280;5591;42.626;23.380;2023-05-01T12:23:51;94313.53;;;30.39;32.88
11077;BME280;5591;42.626;23.380;2023-05-01T12:26:19;94303.69;;;31.73;31.57
11077;BME280;5591;42.626;23.380;2023-05-01T12:29:00;94304.22;;;32.77;30.16
11077;BME280;5591;42.626;23.380;2023-05-01T12:31:27;94241.53;;;32.48;29.67
11077;BME280;5591;42.626;23.380;2023-05-01T12:33:56;94303.78;;;32.24;30.08
11077;BME280;5591;42.626;23.380;2023-05-01T12:36:24;94303.69;;;31.18;31.55
11077;BME280;5591;42.626;23.380;2023-05-01T12:38:59;94306.53;;;30.38;32.64
11077;BME280;5591;42.626;23.380;2023-05-01T12:41:34;94317.06;;;29.01;33.82
11077;BME280;5591;42.626;23.380;2023-05-01T12:44:15;94314.06;;;28.58;34.96
11077;BME280;5591;42.626;23.380;2023-05-01T12:46:42;94311.84;;;28.28;34.95
11077;BME280;5591;42.626;23.380;2023-05-01T12:49:15;94313.34;;;27.41;36.21
11077;BME280;5591;42.626;23.380;2023-05-01T12:51:45;94305.88;;;28.12;35.25
11077;BME280;5591;42.626;23.380;2023-05-01T12:54:17;94297.44;;;28.51;34.70
11077;BME280;5591;42.626;23.380;2023-05-01T12:56:44;94306.97;;;30.10;32.66
11077;BME280;5591;42.626;23.380;2023-05-01T12:59:21;94299.63;;;31.07;31.13
11077;BME280;5591;42.626;23.380;2023-05-01T13:01:55;94304.09;;;32.40;29.82
11077;BME280;5591;42.626;23.380;2023-05-01T13:04:23;94293.41;;;32.98;30.09
11077;BME280;5591;42.626;23.380;2023-05-01T13:06:51;94305.19;;;32.47;31.55
11077;BME280;5591;42.626;23.380;2023-05-01T13:09:20;94300.75;;;33.06;29.83
11077;BME280;5591;42.626;23.380;2023-05-01T13:11:57;94309.84;;;33.10;29.80
11077;BME280;5591;42.626;23.380;2023-05-01T13:14:26;94310.41;;;31.29;31.42
11077;BME280;5591;42.626;23.380;2023-05-01T13:16:54;94309.03;;;32.12;31.23